sensor_id;sensor_type;location;lat;lon;timestamp;temperature;humidity
26081;DHT22;13991;51.174;4.438;2023-05-10T00:02:06;15.10;99.90
26081;DHT22;13991;51.174;4.438;2023-05-10T00:04:32;15.20;99.90
26081;DHT22;13991;51.174;4.438;2023-05-10T00:06:58;15.20;99.90
26081;DHT22;13991;51.174;4.438;2023-05-10T00:09:23;15.20;99.90
26081;DHT22;13991;51.174;4.438;2023-05-10T00:11:49;15.20;99.90
26081;DHT22;13991;51.174;4.438;2023-05-10T00:14:15;15.20;99.90
26081;DHT22;13991;51.174;4.438;2023-05-10T00:16:41;15.10;99.90
26081;DHT22;13991;51.174;4.438;2023-05-10T00:19:06;15.10;99.90
26081;DHT22;13991;51.174;4.438;2023-05-10T00:21:32;15.20;99.90
26081;DHT22;13991;51.174;4.438;2023-05-10T00:23:59;15.10;99.90
26081;DHT22;13991;51.174;4.438;2023-05-10T00:26:25;15.20;99.90
26081;DHT22;13991;51.174;4.438;2023-05-10T00:28:50;15.20;99.90
26081;DHT22;13991;51.174;4.438;2023-05-10T00:31:16;15.20;99.90
26081;DHT22;13991;51.174;4.438;2023-05-10T00:33:42;15.20;99.90
26081;DHT22;13991;51.174;4.438;2023-05-10T00:36:08;15.10;99.90
26081;DHT22;13991;51.174;4.438;2023-05-10T00:38:34;15.10;99.90
26081;DHT22;13991;51.174;4.438;2023-05-10T00:40:59;15.00;99.90
26081;DHT22;13991;51.174;4.438;2023-05-10T00:43:25;15.00;99.90
26081;DHT22;13991;51.174;4.438;2023-05-10T00:45:51;15.00;99.90
26081;DHT22;13991;51.174;4.438;2023-05-10T00:48:18;15.00;99.90
26081;DHT22;13991;51.174;4.438;2023-05-10T00:50:44;15.00;99.90
26081;DHT22;13991;51.174;4.438;2023-05-10T00:53:10;14.90;99.90
26081;DHT22;13991;51.174;4.438;2023-05-10T00:55:36;15.00;99.90
26081;DHT22;13991;51.174;4.438;2023-05-10T00:58:02;14.90;99.90
26081;DHT22;13991;51.174;4.438;2023-05-10T01:00:28;14.80;99.90
26081;DHT22;13991;51.174;4.438;2023-05-10T01:02:55;14.90;99.90
26081;DHT22;13991;51.174;4.438;2023-05-10T01:05:21;15.00;99.90
26081;DHT22;13991;51.174;4.438;2023-05-10T01:07:47;14.90;99.90
26081;DHT22;13991;51.174;4.438;2023-05-10T01:10:13;14.90;99.90
26081;DHT22;13991;51.174;4.438;2023-05-10T01:12:40;14.90;99.90
26081;DHT22;13991;51.174;4.438;2023-05-10T01:15:08;14.90;99.90
26081;DHT22;13991;51.174;4.438;2023-05-10T01:17:39;14.90;99.90
26081;DHT22;13991;51.174;4.438;2023-05-10T01:20:07;15.00;99.90
26081;DHT22;13991;51.174;4.438;2023-05-10T01:23:05;15.00;99.90
26081;DHT22;13991;51.174;4.438;2023-05-10T01:34:16;14.90;99.90
26081;DHT22;13991;51.174;4.438;2023-05-10T01:36:47;14.90;99.90
26081;DHT22;13991;51.174;4.438;2023-05-10T01:40:08;14.90;99.90
26081;DHT22;13991;51.174;4.438;2023-05-10T01:42:21;14.90;99.90
26081;DHT22;13991;51.174;4.438;2023-05-10T01:47:42;14.70;99.90
26081;DHT22;13991;51.174;4.438;2023-05-10T01:50:19;14.80;99.90
26081;DHT22;13991;51.174;4.438;2023-05-10T01:52:51;14.70;99.90
26081;DHT22;13991;51.174;4.438;2023-05-10T01:55:21;14.70;99.90
26081;DHT22;13991;51.174;4.438;2023-05-10T01:57:52;14.80;99.90
26081;DHT22;13991;51.174;4.438;2023-05-10T02:00:20;14.70;99.90
26081;DHT22;13991;51.174;4.438;2023-05-10T02:02:47;14.60;99.90
26081;DHT22;13991;51.174;4.438;2023-05-10T02:05:15;14.60;99.90
26081;DHT22;13991;51.174;4.438;2023-05-10T02:07:42;14.70;99.90
26081;DHT22;13991;51.174;4.438;2023-05-10T02:10:09;14.70;99.90
26081;DHT22;13991;51.174;4.438;2023-05-10T02:12:37;14.80;99.90
26081;DHT22;13991;51.174;4.438;2023-05-10T02:15:06;14.60;99.90
26081;DHT22;13991;51.174;4.438;2023-05-10T02:17:33;14.60;99.90
26081;DHT22;13991;51.174;4.438;2023-05-10T02:20:01;14.60;99.90
26081;DHT22;13991;51.174;4.438;2023-05-10T02:22:27;14.60;99.90
26081;DHT22;13991;51.174;4.438;2023-05-10T02:24:58;14.50;99.90
26081;DHT22;13991;51.174;4.438;2023-05-10T02:27:26;14.30;99.90
26081;DHT22;13991;51.174;4.438;2023-05-10T02:29:53;14.20;99.90
26081;DHT22;13991;51.174;4.438;2023-05-10T02:32:21;14.30;99.90
26081;DHT22;13991;51.174;4.438;2023-05-10T02:34:48;14.40;99.90
26081;DHT22;13991;51.174;4.438;2023-05-10T02:37:19;14.30;99.90
26081;DHT22;13991;51.174;4.438;2023-05-10T02:39:47;14.30;99.90
26081;DHT22;13991;51.174;4.438;2023-05-10T02:42:17;14.30;99.90
26081;DHT22;13991;51.174;4.438;2023-05-10T02:44:46;14.10;99.90
26081;DHT22;13991;51.174;4.438;2023-05-10T02:47:13;14.00;99.90
26081;DHT22;13991;51.174;4.438;2023-05-10T02:49:38;14.00;99.90
26081;DHT22;13991;51.174;4.438;2023-05-10T02:52:05;14.10;99.90
26081;DHT22;13991;51.174;4.438;2023-05-10T02:54:44;14.00;99.90
26081;DHT22;13991;51.174;4.438;2023-05-10T02:57:15;14.00;99.90
26081;DHT22;13991;51.174;4.438;2023-05-10T02:59:45;13.90;99.90
26081;DHT22;13991;51.174;4.438;2023-05-10T03:02:14;13.90;99.90
26081;DHT22;13991;51.174;4.438;2023-05-10T03:04:40;13.90;99.90
26081;DHT22;13991;51.174;4.438;2023-05-10T03:07:06;13.90;99.90
26081;DHT22;13991;51.174;4.438;2023-05-10T03:09:32;14.00;99.90
26081;DHT22;13991;51.174;4.438;2023-05-10T03:12:16;14.10;99.90
26081;DHT22;13991;51.174;4.438;2023-05-10T03:20:35;14.00;99.90
26081;DHT22;13991;51.174;4.438;2023-05-10T03:23:13;13.90;99.90
26081;DHT22;13991;51.174;4.438;2023-05-10T03:25:42;13.90;99.90
26081;DHT22;13991;51.174;4.438;2023-05-10T03:28:09;13.90;99.90
26081;DHT22;13991;51.174;4.438;2023-05-10T03:30:35;14.00;99.90
26081;DHT22;13991;51.174;4.438;2023-05-10T03:33:05;13.90;99.90
26081;DHT22;13991;51.174;4.438;2023-05-10T03:35:31;13.60;99.90
26081;DHT22;13991;51.174;4.438;2023-05-10T03:37:57;13.60;99.90
26081;DHT22;13991;51.174;4.438;2023-05-10T03:40:24;13.60;99.90
26081;DHT22;13991;51.174;4.438;2023-05-10T03:42:50;13.70;99.90
26081;DHT22;13991;51.174;4.438;2023-05-10T03:45:15;13.70;99.90
26081;DHT22;13991;51.174;4.438;2023-05-10T03:47:41;13.80;99.90
26081;DHT22;13991;51.174;4.438;2023-05-10T03:50:07;13.80;99.90
26081;DHT22;13991;51.174;4.438;2023-05-10T03:52:33;13.70;99.90
26081;DHT22;13991;51.174;4.438;2023-05-10T03:54:59;13.80;99.90
26081;DHT22;13991;51.174;4.438;2023-05-10T03:57:24;13.80;99.90
26081;DHT22;13991;51.174;4.438;2023-05-10T03:59:50;13.70;99.90
26081;DHT22;13991;51.174;4.438;2023-05-10T04:02:16;13.70;99.90
26081;DHT22;13991;51.174;4.438;2023-05-10T04:04:42;13.70;99.90
26081;DHT22;13991;51.174;4.438;2023-05-10T04:07:07;13.70;99.90
26081;DHT22;13991;51.174;4.438;2023-05-10T04:09:33;13.70;99.90
26081;DHT22;13991;51.174;4.438;2023-05-10T04:11:59;13.80;99.90
26081;DHT22;13991;51.174;4.438;2023-05-10T04:14:26;14.00;99.90
26081;DHT22;13991;51.174;4.438;2023-05-10T04:16:51;14.10;99.90
26081;DHT22;13991;51.174;4.438;2023-05-10T04:19:17;14.00;99.90
26081;DHT22;13991;51.174;4.438;2023-05-10T04:21:42;13.90;99.90
26081;DHT22;13991;51.174;4.438;2023-05-10T04:24:08;13.90;99.90
26081;DHT22;13991;51.174;4.438;2023-05-10T04:26:34;13.80;99.90
26081;DHT22;13991;51.174;4.438;2023-05-10T04:28:59;13.90;99.90
26081;DHT22;13991;51.174;4.438;2023-05-10T04:31:25;13.80;99.90
26081;DHT22;13991;51.174;4.438;2023-05-10T04:33:52;13.80;99.90
26081;DHT22;13991;51.174;4.438;2023-05-10T04:36:18;13.70;99.90
26081;DHT22;13991;51.174;4.438;2023-05-10T04:38:44;13.70;99.90
26081;DHT22;13991;51.174;4.438;2023-05-10T04:41:10;13.90;99.90
26081;DHT22;13991;51.174;4.438;2023-05-10T04:43:37;13.80;99.90
26081;DHT22;13991;51.174;4.438;2023-05-10T04:46:03;13.80;99.90
26081;DHT22;13991;51.174;4.438;2023-05-10T04:48:29;13.80;99.90
26081;DHT22;13991;51.174;4.438;2023-05-10T04:50:55;13.70;99.90
26081;DHT22;13991;51.174;4.438;2023-05-10T04:53:22;13.60;99.90
26081;DHT22;13991;51.174;4.438;2023-05-10T04:55:48;13.60;99.90
26081;DHT22;13991;51.174;4.438;2023-05-10T04:58:14;13.60;99.90
26081;DHT22;13991;51.174;4.438;2023-05-10T05:00:40;13.70;99.90
26081;DHT22;13991;51.174;4.438;2023-05-10T05:03:05;13.70;99.90
26081;DHT22;13991;51.174;4.438;2023-05-10T05:05:31;13.80;99.90
26081;DHT22;13991;51.174;4.438;2023-05-10T05:07:57;13.80;99.90
26081;DHT22;13991;51.174;4.438;2023-05-10T05:10:22;13.80;99.90
26081;DHT22;13991;51.174;4.438;2023-05-10T05:12:48;13.70;99.90
26081;DHT22;13991;51.174;4.438;2023-05-10T05:15:14;13.80;99.90
26081;DHT22;13991;51.174;4.438;2023-05-10T05:17:42;13.70;99.90
26081;DHT22;13991;51.174;4.438;2023-05-10T05:20:09;13.90;99.90
26081;DHT22;13991;51.174;4.438;2023-05-10T05:22:36;13.90;99.90
26081;DHT22;13991;51.174;4.438;2023-05-10T05:25:02;13.80;99.90
26081;DHT22;13991;51.174;4.438;2023-05-10T05:27:29;13.80;99.90
26081;DHT22;13991;51.174;4.438;2023-05-10T05:29:58;13.90;99.90
26081;DHT22;13991;51.174;4.438;2023-05-10T05:32:24;14.00;99.90
26081;DHT22;13991;51.174;4.438;2023-05-10T05:34:50;14.10;99.90
26081;DHT22;13991;51.174;4.438;2023-05-10T05:37:18;14.20;99.90
26081;DHT22;13991;51.174;4.438;2023-05-10T05:39:44;14.40;99.90
26081;DHT22;13991;51.174;4.438;2023-05-10T05:42:11;14.50;99.90
26081;DHT22;13991;51.174;4.438;2023-05-10T05:44:37;14.50;99.90
26081;DHT22;13991;51.174;4.438;2023-05-10T05:47:03;14.40;99.90
26081;DHT22;13991;51.174;4.438;2023-05-10T05:49:29;14.40;99.90
26081;DHT22;13991;51.174;4.438;2023-05-10T05:51:59;14.20;99.90
26081;DHT22;13991;51.174;4.438;2023-05-10T05:54:25;14.20;99.90
26081;DHT22;13991;51.174;4.438;2023-05-10T05:56:50;14.20;99.90
26081;DHT22;13991;51.174;4.438;2023-05-10T05:59:16;14.10;99.90
26081;DHT22;13991;51.174;4.438;2023-05-10T06:01:42;14.30;99.90
26081;DHT22;13991;51.174;4.438;2023-05-10T06:04:07;14.30;99.90
26081;DHT22;13991;51.174;4.438;2023-05-10T06:06:33;14.30;99.90
26081;DHT22;13991;51.174;4.438;2023-05-10T06:08:59;14.40;99.90
26081;DHT22;13991;51.174;4.438;2023-05-10T06:11:25;14.40;99.90
26081;DHT22;13991;51.174;4.438;2023-05-10T06:13:51;14.40;99.90
26081;DHT22;13991;51.174;4.438;2023-05-10T06:16:17;14.40;99.90
26081;DHT22;13991;51.174;4.438;2023-05-10T06:18:43;14.30;99.90
26081;DHT22;13991;51.174;4.438;2023-05-10T06:21:08;14.20;99.90
26081;DHT22;13991;51.174;4.438;2023-05-10T06:23:34;14.40;99.90
26081;DHT22;13991;51.174;4.438;2023-05-10T06:26:01;14.40;99.90
26081;DHT22;13991;51.174;4.438;2023-05-10T06:28:26;14.40;99.90
26081;DHT22;13991;51.174;4.438;2023-05-10T06:30:52;14.60;99.90
26081;DHT22;13991;51.174;4.438;2023-05-10T06:33:17;14.90;99.90
26081;DHT22;13991;51.174;4.438;2023-05-10T06:35:43;15.00;99.90
26081;DHT22;13991;51.174;4.438;2023-05-10T06:38:09;15.00;99.90
26081;DHT22;13991;51.174;4.438;2023-05-10T06:40:34;15.00;99.90
26081;DHT22;13991;51.174;4.438;2023-05-10T06:43:01;14.80;99.90
26081;DHT22;13991;51.174;4.438;2023-05-10T06:45:27;14.90;99.90
26081;DHT22;13991;51.174;4.438;2023-05-10T06:47:52;14.80;99.90
26081;DHT22;13991;51.174;4.438;2023-05-10T06:50:18;14.90;99.90
26081;DHT22;13991;51.174;4.438;2023-05-10T06:52:44;14.90;99.90
26081;DHT22;13991;51.174;4.438;2023-05-10T06:55:10;15.00;99.90
26081;DHT22;13991;51.174;4.438;2023-05-10T06:57:36;15.00;99.90
26081;DHT22;13991;51.174;4.438;2023-05-10T07:00:02;14.90;99.90
26081;DHT22;13991;51.174;4.438;2023-05-10T07:02:29;15.00;99.90
26081;DHT22;13991;51.174;4.438;2023-05-10T07:04:55;15.10;99.90
26081;DHT22;13991;51.174;4.438;2023-05-10T07:07:21;15.20;99.90
26081;DHT22;13991;51.174;4.438;2023-05-10T07:09:46;14.90;99.90
26081;DHT22;13991;51.174;4.438;2023-05-10T07:12:12;15.00;99.90
26081;DHT22;13991;51.174;4.438;2023-05-10T07:14:38;15.00;99.90
26081;DHT22;13991;51.174;4.438;2023-05-10T07:17:03;15.00;99.90
26081;DHT22;13991;51.174;4.438;2023-05-10T07:19:29;15.00;99.90
26081;DHT22;13991;51.174;4.438;2023-05-10T07:21:55;15.20;99.90
26081;DHT22;13991;51.174;4.438;2023-05-10T07:24:21;15.30;99.90
26081;DHT22;13991;51.174;4.438;2023-05-10T07:26:46;15.20;99.90
26081;DHT22;13991;51.174;4.438;2023-05-10T07:29:12;15.20;99.90
26081;DHT22;13991;51.174;4.438;2023-05-10T07:31:38;15.30;99.90
26081;DHT22;13991;51.174;4.438;2023-05-10T07:34:03;15.00;99.90
26081;DHT22;13991;51.174;4.438;2023-05-10T07:36:29;15.20;99.90
26081;DHT22;13991;51.174;4.438;2023-05-10T07:38:54;15.30;99.90
26081;DHT22;13991;51.174;4.438;2023-05-10T07:41:21;15.20;99.90
26081;DHT22;13991;51.174;4.438;2023-05-10T07:43:47;15.20;99.90
26081;DHT22;13991;51.174;4.438;2023-05-10T07:46:13;15.30;99.90
26081;DHT22;13991;51.174;4.438;2023-05-10T07:48:39;15.50;99.90
26081;DHT22;13991;51.174;4.438;2023-05-10T07:51:04;15.40;99.90
26081;DHT22;13991;51.174;4.438;2023-05-10T07:53:31;15.30;99.90
26081;DHT22;13991;51.174;4.438;2023-05-10T07:55:58;15.10;99.90
26081;DHT22;13991;51.174;4.438;2023-05-10T07:58:24;15.30;99.90
26081;DHT22;13991;51.174;4.438;2023-05-10T08:00:50;15.50;99.90
26081;DHT22;13991;51.174;4.438;2023-05-10T08:03:15;15.70;99.90
26081;DHT22;13991;51.174;4.438;2023-05-10T08:05:41;15.90;99.90
26081;DHT22;13991;51.174;4.438;2023-05-10T08:08:07;15.80;99.90
26081;DHT22;13991;51.174;4.438;2023-05-10T08:10:33;16.00;99.90
26081;DHT22;13991;51.174;4.438;2023-05-10T08:12:58;16.30;99.90
26081;DHT22;13991;51.174;4.438;2023-05-10T08:15:24;16.40;99.90
26081;DHT22;13991;51.174;4.438;2023-05-10T08:17:51;16.80;99.90
26081;DHT22;13991;51.174;4.438;2023-05-10T08:20:17;16.90;99.90
26081;DHT22;13991;51.174;4.438;2023-05-10T08:22:45;16.90;99.90
26081;DHT22;13991;51.174;4.438;2023-05-10T08:25:11;16.90;99.90
26081;DHT22;13991;51.174;4.438;2023-05-10T08:27:37;17.10;99.90
26081;DHT22;13991;51.174;4.438;2023-05-10T08:30:03;17.30;99.90
26081;DHT22;13991;51.174;4.438;2023-05-10T08:32:28;17.30;99.90
26081;DHT22;13991;51.174;4.438;2023-05-10T08:34:55;17.30;99.90
26081;DHT22;13991;51.174;4.438;2023-05-10T08:37:22;17.10;99.90
26081;DHT22;13991;51.174;4.438;2023-05-10T08:39:48;17.30;99.90
26081;DHT22;13991;51.174;4.438;2023-05-10T08:42:16;17.30;99.90
26081;DHT22;13991;51.174;4.438;2023-05-10T08:44:46;17.40;99.90
26081;DHT22;13991;51.174;4.438;2023-05-10T08:47:13;17.20;99.90
26081;DHT22;13991;51.174;4.438;2023-05-10T08:49:40;17.30;99.90
26081;DHT22;13991;51.174;4.438;2023-05-10T08:52:07;17.40;99.90
26081;DHT22;13991;51.174;4.438;2023-05-10T08:54:33;17.50;99.90
26081;DHT22;13991;51.174;4.438;2023-05-10T08:57:00;17.60;99.90
26081;DHT22;13991;51.174;4.438;2023-05-10T08:59:25;17.50;99.90
26081;DHT22;13991;51.174;4.438;2023-05-10T09:01:52;17.30;99.90
26081;DHT22;13991;51.174;4.438;2023-05-10T09:04:20;16.70;99.90
26081;DHT22;13991;51.174;4.438;2023-05-10T09:06:47;16.60;99.90
26081;DHT22;13991;51.174;4.438;2023-05-10T09:09:13;16.60;99.90
26081;DHT22;13991;51.174;4.438;2023-05-10T09:11:40;16.60;99.90
26081;DHT22;13991;51.174;4.438;2023-05-10T09:14:06;16.70;99.90
26081;DHT22;13991;51.174;4.438;2023-05-10T09:16:32;16.80;99.90
26081;DHT22;13991;51.174;4.438;2023-05-10T09:18:57;17.00;99.90
26081;DHT22;13991;51.174;4.438;2023-05-10T09:21:23;17.00;99.90
26081;DHT22;13991;51.174;4.438;2023-05-10T09:23:48;17.10;99.90
26081;DHT22;13991;51.174;4.438;2023-05-10T09:26:15;17.20;99.90
26081;DHT22;13991;51.174;4.438;2023-05-10T09:28:51;17.00;99.90
26081;DHT22;13991;51.174;4.438;2023-05-10T09:31:17;16.90;99.90
26081;DHT22;13991;51.174;4.438;2023-05-10T09:33:47;16.60;99.90
26081;DHT22;13991;51.174;4.438;2023-05-10T09:36:14;16.70;99.90
26081;DHT22;13991;51.174;4.438;2023-05-10T09:38:51;16.80;99.90
26081;DHT22;13991;51.174;4.438;2023-05-10T09:41:24;16.80;99.90
26081;DHT22;13991;51.174;4.438;2023-05-10T09:43:55;16.70;99.90
26081;DHT22;13991;51.174;4.438;2023-05-10T09:46:22;16.80;99.90
26081;DHT22;13991;51.174;4.438;2023-05-10T09:48:48;16.80;99.90
26081;DHT22;13991;51.174;4.438;2023-05-10T09:51:24;17.00;99.90
26081;DHT22;13991;51.174;4.438;2023-05-10T09:54:13;17.10;99.90
26081;DHT22;13991;51.174;4.438;2023-05-10T09:56:39;17.10;99.90
26081;DHT22;13991;51.174;4.438;2023-05-10T09:59:07;17.10;99.90
26081;DHT22;13991;51.174;4.438;2023-05-10T10:01:34;17.10;99.90
26081;DHT22;13991;51.174;4.438;2023-05-10T10:04:06;17.10;99.90
26081;DHT22;13991;51.174;4.438;2023-05-10T10:06:36;17.00;99.90
26081;DHT22;13991;51.174;4.438;2023-05-10T10:09:02;17.10;99.90
26081;DHT22;13991;51.174;4.438;2023-05-10T10:11:28;17.10;99.90
26081;DHT22;13991;51.174;4.438;2023-05-10T10:13:54;17.50;99.90
26081;DHT22;13991;51.174;4.438;2023-05-10T10:16:20;17.70;99.90
26081;DHT22;13991;51.174;4.438;2023-05-10T10:18:47;17.80;99.90
26081;DHT22;13991;51.174;4.438;2023-05-10T10:21:14;18.10;99.90
26081;DHT22;13991;51.174;4.438;2023-05-10T10:23:40;18.10;99.90
26081;DHT22;13991;51.174;4.438;2023-05-10T10:26:06;18.40;99.90
26081;DHT22;13991;51.174;4.438;2023-05-10T10:29:13;18.60;99.90
26081;DHT22;13991;51.174;4.438;2023-05-10T10:36:47;18.60;99.90
26081;DHT22;13991;51.174;4.438;2023-05-10T10:39:14;18.80;99.90
26081;DHT22;13991;51.174;4.438;2023-05-10T10:41:56;18.50;99.90
26081;DHT22;13991;51.174;4.438;2023-05-10T10:47:05;18.40;99.90
26081;DHT22;13991;51.174;4.438;2023-05-10T10:55:17;18.20;99.90
26081;DHT22;13991;51.174;4.438;2023-05-10T10:57:52;18.30;99.90
26081;DHT22;13991;51.174;4.438;2023-05-10T11:00:38;18.20;99.90
26081;DHT22;13991;51.174;4.438;2023-05-10T11:03:11;17.90;99.90
26081;DHT22;13991;51.174;4.438;2023-05-10T11:05:45;17.90;99.90
26081;DHT22;13991;51.174;4.438;2023-05-10T11:08:15;17.90;99.90
26081;DHT22;13991;51.174;4.438;2023-05-10T11:10:53;17.60;99.90
26081;DHT22;13991;51.174;4.438;2023-05-10T11:13:28;17.50;99.90
26081;DHT22;13991;51.174;4.438;2023-05-10T11:15:54;17.50;99.90
26081;DHT22;13991;51.174;4.438;2023-05-10T11:18:27;17.30;99.90
26081;DHT22;13991;51.174;4.438;2023-05-10T11:20:59;17.10;99.90
26081;DHT22;13991;51.174;4.438;2023-05-10T11:23:34;17.10;99.90
26081;DHT22;13991;51.174;4.438;2023-05-10T11:26:13;17.00;99.90
26081;DHT22;13991;51.174;4.438;2023-05-10T11:28:46;17.10;99.90
26081;DHT22;13991;51.174;4.438;2023-05-10T11:31:16;17.10;99.90
26081;DHT22;13991;51.174;4.438;2023-05-10T11:33:47;17.20;99.90
26081;DHT22;13991;51.174;4.438;2023-05-10T11:36:17;17.20;99.90
26081;DHT22;13991;51.174;4.438;2023-05-10T11:38:43;17.10;99.90
26081;DHT22;13991;51.174;4.438;2023-05-10T11:41:09;17.00;99.90
26081;DHT22;13991;51.174;4.438;2023-05-10T11:43:37;16.90;99.90
26081;DHT22;13991;51.174;4.438;2023-05-10T11:46:09;16.90;99.90
26081;DHT22;13991;51.174;4.438;2023-05-10T11:48:36;16.70;99.90
26081;DHT22;13991;51.174;4.438;2023-05-10T11:51:02;16.70;99.90
26081;DHT22;13991;51.174;4.438;2023-05-10T11:53:30;16.70;99.90
26081;DHT22;13991;51.174;4.438;2023-05-10T11:56:03;16.80;99.90
26081;DHT22;13991;51.174;4.438;2023-05-10T11:58:30;16.90;99.90
26081;DHT22;13991;51.174;4.438;2023-05-10T12:00:57;16.90;99.90
26081;DHT22;13991;51.174;4.438;2023-05-10T12:03:23;16.90;99.90
26081;DHT22;13991;51.174;4.438;2023-05-10T12:05:49;17.10;99.90
26081;DHT22;13991;51.174;4.438;2023-05-10T12:08:15;17.20;99.90
26081;DHT22;13991;51.174;4.438;2023-05-10T12:10:45;17.10;99.90
26081;DHT22;13991;51.174;4.438;2023-05-10T12:13:12;17.20;99.90
26081;DHT22;13991;51.174;4.438;2023-05-10T12:15:39;17.10;99.90
26081;DHT22;13991;51.174;4.438;2023-05-10T12:18:04;17.20;99.90
26081;DHT22;13991;51.174;4.438;2023-05-10T12:20:31;17.30;99.90
26081;DHT22;13991;51.174;4.438;2023-05-10T12:22:58;17.30;99.90
26081;DHT22;13991;51.174;4.438;2023-05-10T12:25:36;17.30;99.90
26081;DHT22;13991;51.174;4.438;2023-05-10T12:28:07;17.20;99.90
26081;DHT22;13991;51.174;4.438;2023-05-10T12:30:34;17.20;99.90
26081;DHT22;13991;51.174;4.438;2023-05-10T12:33:12;17.20;99.90
26081;DHT22;13991;51.174;4.438;2023-05-10T12:35:53;17.40;99.90
26081;DHT22;13991;51.174;4.438;2023-05-10T12:38:27;17.30;99.90
26081;DHT22;13991;51.174;4.438;2023-05-10T12:40:58;17.50;99.90
26081;DHT22;13991;51.174;4.438;2023-05-10T12:43:24;17.50;99.90
26081;DHT22;13991;51.174;4.438;2023-05-10T12:45:50;17.60;99.90
26081;DHT22;13991;51.174;4.438;2023-05-10T12:48:16;17.60;99.90
26081;DHT22;13991;51.174;4.438;2023-05-10T12:50:41;17.70;99.90
26081;DHT22;13991;51.174;4.438;2023-05-10T12:53:07;17.70;99.90
26081;DHT22;13991;51.174;4.438;2023-05-10T12:55:33;17.80;99.90
26081;DHT22;13991;51.174;4.438;2023-05-10T12:57:58;17.60;99.90
26081;DHT22;13991;51.174;4.438;2023-05-10T13:00:24;17.60;99.90
26081;DHT22;13991;51.174;4.438;2023-05-10T13:02:50;17.80;99.90
26081;DHT22;13991;51.174;4.438;2023-05-10T13:05:15;17.80;99.90
26081;DHT22;13991;51.174;4.438;2023-05-10T13:07:41;17.80;99.90
26081;DHT22;13991;51.174;4.438;2023-05-10T13:10:09;18.00;99.90
26081;DHT22;13991;51.174;4.438;2023-05-10T13:12:35;17.90;99.90
26081;DHT22;13991;51.174;4.438;2023-05-10T13:15:01;17.80;99.90
26081;DHT22;13991;51.174;4.438;2023-05-10T13:17:28;17.70;99.90
26081;DHT22;13991;51.174;4.438;2023-05-10T13:19:54;17.80;99.90
26081;DHT22;13991;51.174;4.438;2023-05-10T13:22:20;17.80;99.90
26081;DHT22;13991;51.174;4.438;2023-05-10T13:24:46;17.70;99.90
26081;DHT22;13991;51.174;4.438;2023-05-10T13:27:11;17.60;99.90
26081;DHT22;13991;51.174;4.438;2023-05-10T13:29:37;17.60;99.90
26081;DHT22;13991;51.174;4.438;2023-05-10T13:32:03;17.70;99.90
26081;DHT22;13991;51.174;4.438;2023-05-10T13:34:28;17.60;99.90
26081;DHT22;13991;51.174;4.438;2023-05-10T13:36:54;17.60;99.90
26081;DHT22;13991;51.174;4.438;2023-05-10T13:39:22;17.80;99.90
26081;DHT22;13991;51.174;4.438;2023-05-10T13:41:48;17.70;99.90
26081;DHT22;13991;51.174;4.438;2023-05-10T13:44:14;17.70;99.90
26081;DHT22;13991;51.174;4.438;2023-05-10T13:46:41;17.70;99.90
26081;DHT22;13991;51.174;4.438;2023-05-10T13:49:09;17.70;99.90
26081;DHT22;13991;51.174;4.438;2023-05-10T13:51:35;17.50;99.90
26081;DHT22;13991;51.174;4.438;2023-05-10T13:54:02;17.50;99.90
26081;DHT22;13991;51.174;4.438;2023-05-10T13:56:27;17.40;99.90
26081;DHT22;13991;51.174;4.438;2023-05-10T13:58:53;17.40;99.90
26081;DHT22;13991;51.174;4.438;2023-05-10T14:01:19;17.40;99.90
26081;DHT22;13991;51.174;4.438;2023-05-10T14:03:44;17.30;99.90
26081;DHT22;13991;51.174;4.438;2023-05-10T14:06:10;17.10;99.90
26081;DHT22;13991;51.174;4.438;2023-05-10T14:08:36;17.00;99.90
26081;DHT22;13991;51.174;4.438;2023-05-10T14:11:02;17.00;99.90
26081;DHT22;13991;51.174;4.438;2023-05-10T14:13:27;17.00;99.90
26081;DHT22;13991;51.174;4.438;2023-05-10T14:15:53;16.90;99.90
26081;DHT22;13991;51.174;4.438;2023-05-10T14:18:19;17.00;99.90
26081;DHT22;13991;51.174;4.438;2023-05-10T14:20:45;17.00;99.90
26081;DHT22;13991;51.174;4.438;2023-05-10T14:23:11;17.10;99.90
26081;DHT22;13991;51.174;4.438;2023-05-10T14:25:39;17.10;99.90
26081;DHT22;13991;51.174;4.438;2023-05-10T14:28:05;17.20;99.90
26081;DHT22;13991;51.174;4.438;2023-05-10T14:30:31;17.20;99.90
26081;DHT22;13991;51.174;4.438;2023-05-10T14:32:58;17.20;99.90
26081;DHT22;13991;51.174;4.438;2023-05-10T14:35:23;17.30;99.90
26081;DHT22;13991;51.174;4.438;2023-05-10T14:37:49;17.40;99.90
26081;DHT22;13991;51.174;4.438;2023-05-10T14:40:15;17.40;99.90
26081;DHT22;13991;51.174;4.438;2023-05-10T14:42:42;17.50;99.90
26081;DHT22;13991;51.174;4.438;2023-05-10T14:45:09;17.60;99.90
26081;DHT22;13991;51.174;4.438;2023-05-10T14:47:35;17.50;99.90
26081;DHT22;13991;51.174;4.438;2023-05-10T14:50:01;17.70;99.90
26081;DHT22;13991;51.174;4.438;2023-05-10T14:52:27;17.60;99.90
26081;DHT22;13991;51.174;4.438;2023-05-10T14:54:53;17.60;99.90
26081;DHT22;13991;51.174;4.438;2023-05-10T14:57:19;17.80;99.90
26081;DHT22;13991;51.174;4.438;2023-05-10T14:59:44;17.90;99.90
26081;DHT22;13991;51.174;4.438;2023-05-10T15:02:10;17.90;99.90
26081;DHT22;13991;51.174;4.438;2023-05-10T15:04:36;17.80;99.90
26081;DHT22;13991;51.174;4.438;2023-05-10T15:07:02;17.60;99.90
26081;DHT22;13991;51.174;4.438;2023-05-10T15:09:28;17.20;99.90
26081;DHT22;13991;51.174;4.438;2023-05-10T15:11:54;16.70;99.90
26081;DHT22;13991;51.174;4.438;2023-05-10T15:14:20;16.20;99.90
26081;DHT22;13991;51.174;4.438;2023-05-10T15:16:46;16.00;99.90
26081;DHT22;13991;51.174;4.438;2023-05-10T15:19:12;15.80;99.90
26081;DHT22;13991;51.174;4.438;2023-05-10T15:21:37;15.30;99.90
26081;DHT22;13991;51.174;4.438;2023-05-10T15:24:07;15.20;99.90
26081;DHT22;13991;51.174;4.438;2023-05-10T15:26:33;15.00;99.90
26081;DHT22;13991;51.174;4.438;2023-05-10T15:28:59;14.90;99.90
26081;DHT22;13991;51.174;4.438;2023-05-10T15:31:24;15.00;99.90
26081;DHT22;13991;51.174;4.438;2023-05-10T15:33:50;15.00;99.90
26081;DHT22;13991;51.174;4.438;2023-05-10T15:36:16;14.90;99.90
26081;DHT22;13991;51.174;4.438;2023-05-10T15:38:43;14.90;99.90
26081;DHT22;13991;51.174;4.438;2023-05-10T15:41:09;15.10;99.90
26081;DHT22;13991;51.174;4.438;2023-05-10T15:43:35;15.20;99.90
26081;DHT22;13991;51.174;4.438;2023-05-10T15:46:01;15.30;99.90
26081;DHT22;13991;51.174;4.438;2023-05-10T15:48:27;15.20;99.90
26081;DHT22;13991;51.174;4.438;2023-05-10T15:50:52;15.20;99.90
26081;DHT22;13991;51.174;4.438;2023-05-10T15:53:18;15.20;99.90
26081;DHT22;13991;51.174;4.438;2023-05-10T15:55:44;15.40;99.90
26081;DHT22;13991;51.174;4.438;2023-05-10T15:58:09;15.20;99.90
26081;DHT22;13991;51.174;4.438;2023-05-10T16:00:37;15.00;99.90
26081;DHT22;13991;51.174;4.438;2023-05-10T16:03:03;14.90;99.90